Terminal Aerodrome Forecast
Issued by NWS Omaha/Valley, NE

Home | Current Version | Previous Version | Text Only | Print | Product List | Glossary On
Versions: 1 2 3 4 5 6 7 8 9 10 11 12 13
000
FTUS43 KOAX 221127
TAFOFK
TAF
KOFK 221127Z 2212/2312 19006KT P6SM SCT250
     FM221700 19013G20KT P6SM SCT250
     FM222300 20009KT P6SM SCT250
     FM230400 26008KT P6SM FEW250
     FM230600 29007KT P6SM FEW250=

USA.gov is the U.S. government's official web portal to all federal, state and local government web resources and services.